createdAt,value
2019-02-26T00:00:12.546Z,6.30
2019-02-26T00:02:46.545Z,6.00
2019-02-26T00:05:17.354Z,6.10
2019-02-26T00:07:44.387Z,6.90
2019-02-26T00:10:13.259Z,6.40
2019-02-26T00:12:41.550Z,5.60
2019-02-26T00:15:11.363Z,5.90
2019-02-26T00:17:41.182Z,6.20
2019-02-26T00:20:11.113Z,5.80
2019-02-26T00:22:41.210Z,6.40
2019-02-26T00:25:10.422Z,6.30
2019-02-26T00:27:39.427Z,5.80
2019-02-26T00:30:11.807Z,6.43
2019-02-26T00:32:41.263Z,6.10
2019-02-26T00:35:09.619Z,6.47
2019-02-26T00:37:37.886Z,7.53
2019-02-26T00:40:07.830Z,7.97
2019-02-26T00:42:37.158Z,8.60
2019-02-26T00:45:07.898Z,7.80
2019-02-26T00:47:36.906Z,7.63
2019-02-26T00:50:09.547Z,7.50
2019-02-26T00:52:39.220Z,7.23
2019-02-26T00:55:09.371Z,6.90
2019-02-26T00:57:38.913Z,6.40
2019-02-26T01:00:12.805Z,8.87
2019-02-26T01:02:41.133Z,6.90
2019-02-26T01:05:11.335Z,7.70
2019-02-26T01:07:39.689Z,8.50
2019-02-26T01:10:09.336Z,8.43
2019-02-26T01:12:40.129Z,8.40
2019-02-26T01:15:13.932Z,7.90
2019-02-26T01:17:42.286Z,7.70
2019-02-26T01:20:11.847Z,7.67
2019-02-26T01:22:40.327Z,9.77
2019-02-26T01:25:12.675Z,9.33
2019-02-26T01:27:43.198Z,8.53
2019-02-26T01:30:11.439Z,8.60
2019-02-26T01:32:39.719Z,8.50
2019-02-26T01:35:10.269Z,8.27
2019-02-26T01:37:37.922Z,8.10
2019-02-26T01:40:13.097Z,8.97
2019-02-26T01:42:39.950Z,7.70
2019-02-26T01:45:12.214Z,7.70
2019-02-26T01:47:42.591Z,8.47
2019-02-26T01:50:13.202Z,7.17
2019-02-26T01:52:41.458Z,8.20
2019-02-26T01:55:10.514Z,8.20
2019-02-26T01:57:42.668Z,9.10
2019-02-26T02:00:10.262Z,7.23
2019-02-26T02:02:38.450Z,8.20
2019-02-26T02:05:07.120Z,8.10
2019-02-26T02:07:35.394Z,8.53
2019-02-26T02:10:04.854Z,8.33
2019-02-26T02:12:34.523Z,7.00
2019-02-26T02:15:03.534Z,8.37
2019-02-26T02:17:33.400Z,7.27
2019-02-26T02:20:05.271Z,8.87
2019-02-26T02:22:33.009Z,7.57
2019-02-26T02:25:01.558Z,7.10
2019-02-26T02:27:30.967Z,7.27
2019-02-26T02:29:59.690Z,6.80
2019-02-26T02:32:29.543Z,6.60
2019-02-26T02:35:00.642Z,7.03
2019-02-26T02:37:30.022Z,7.07
2019-02-26T02:39:57.677Z,6.60
2019-02-26T02:42:25.967Z,7.20
2019-02-26T02:44:54.221Z,6.60
2019-02-26T02:47:25.057Z,7.07
2019-02-26T02:49:52.344Z,7.43
2019-02-26T02:52:20.606Z,7.60
2019-02-26T02:54:50.029Z,7.40
2019-02-26T02:57:18.751Z,7.80
2019-02-26T02:59:47.022Z,7.90
2019-02-26T03:02:17.634Z,7.67
2019-02-26T03:04:45.220Z,7.40
2019-02-26T03:07:15.378Z,7.70
2019-02-26T03:09:45.580Z,6.97
2019-02-26T03:12:13.550Z,8.00
2019-02-26T03:14:42.475Z,7.67
2019-02-26T03:17:14.139Z,8.10
2019-02-26T03:19:43.642Z,7.60
2019-02-26T03:22:12.913Z,7.23
2019-02-26T03:24:41.442Z,8.40
2019-02-26T03:27:09.738Z,9.07
2019-02-26T03:29:37.936Z,8.70
2019-02-26T03:32:06.232Z,8.30
2019-02-26T03:34:34.511Z,8.10
2019-02-26T03:37:03.916Z,8.77
2019-02-26T03:39:32.712Z,7.90
2019-02-26T03:42:01.074Z,8.07
2019-02-26T03:44:30.313Z,7.63
2019-02-26T03:46:58.628Z,7.77
2019-02-26T03:49:27.241Z,7.43
2019-02-26T03:51:59.066Z,7.40
2019-02-26T03:54:25.393Z,7.90
2019-02-26T03:56:53.660Z,7.17
2019-02-26T03:59:21.942Z,7.53
2019-02-26T04:01:50.210Z,7.80
2019-02-26T04:04:20.445Z,7.57
2019-02-26T04:06:48.547Z,7.10
2019-02-26T04:09:18.978Z,6.93
2019-02-26T04:11:49.639Z,7.73
2019-02-26T04:14:18.128Z,7.87
2019-02-26T04:16:46.597Z,8.03
2019-02-26T04:19:14.830Z,8.40
2019-02-26T04:22:00.851Z,7.40
2019-02-26T04:24:31.820Z,7.93
2019-02-26T04:27:00.571Z,7.47
2019-02-26T04:29:30.101Z,7.57
2019-02-26T04:32:05.573Z,8.10
2019-02-26T04:34:38.057Z,7.67
2019-02-26T04:37:12.804Z,7.40
2019-02-26T04:39:51.033Z,7.40
2019-02-26T04:42:26.537Z,7.77
2019-02-26T04:45:04.908Z,8.60
2019-02-26T04:47:49.511Z,7.70
2019-02-26T04:50:17.819Z,7.37
2019-02-26T04:52:46.105Z,7.63
2019-02-26T04:55:14.364Z,7.17
2019-02-26T04:57:45.431Z,7.17
2019-02-26T05:00:12.575Z,6.97
2019-02-26T05:02:40.857Z,7.20
2019-02-26T05:05:09.188Z,7.23
2019-02-26T05:07:38.493Z,8.13
2019-02-26T05:10:07.669Z,8.10
2019-02-26T05:12:37.948Z,7.90
2019-02-26T05:15:06.410Z,7.70
2019-02-26T05:17:34.696Z,7.37
2019-02-26T05:20:04.243Z,7.57
2019-02-26T05:22:35.494Z,7.77
2019-02-26T05:25:04.814Z,7.00
2019-02-26T05:27:33.765Z,8.10
2019-02-26T05:30:01.978Z,7.03
2019-02-26T05:32:32.763Z,8.00
2019-02-26T05:35:00.103Z,6.57
2019-02-26T05:37:29.157Z,7.53
2019-02-26T05:39:58.273Z,7.50
2019-02-26T05:42:26.490Z,7.00
2019-02-26T05:44:57.421Z,6.53
2019-02-26T05:47:26.566Z,7.10
2019-02-26T05:49:54.728Z,7.30
2019-02-26T05:52:24.372Z,6.30
2019-02-26T05:54:52.924Z,6.90
2019-02-26T05:57:30.886Z,6.20
2019-02-26T05:59:51.127Z,7.00
2019-02-26T06:02:21.726Z,6.70
2019-02-26T06:04:49.338Z,5.87
2019-02-26T06:07:21.758Z,7.37
2019-02-26T06:09:48.404Z,6.30
2019-02-26T06:12:17.509Z,6.57
2019-02-26T06:14:45.779Z,6.70
2019-02-26T06:17:15.553Z,7.17
2019-02-26T06:19:45.114Z,6.13
2019-02-26T06:22:16.970Z,6.47
2019-02-26T06:24:43.395Z,6.20
2019-02-26T06:27:15.394Z,6.60
2019-02-26T06:29:41.609Z,6.43
2019-02-26T06:32:12.002Z,6.60
2019-02-26T06:34:40.344Z,5.97
2019-02-26T06:37:18.426Z,6.37
2019-02-26T06:39:50.612Z,5.87
2019-02-26T06:42:16.953Z,6.30
2019-02-26T06:44:47.167Z,6.27
2019-02-26T06:47:15.090Z,6.67
2019-02-26T06:49:45.241Z,6.00
2019-02-26T06:52:15.367Z,5.90
2019-02-26T06:54:47.803Z,5.60
2019-02-26T06:57:13.166Z,6.60
2019-02-26T06:59:41.432Z,6.37
2019-02-26T07:02:10.937Z,5.43
2019-02-26T07:04:39.593Z,5.90
2019-02-26T07:07:12.216Z,6.50
2019-02-26T07:09:39.251Z,6.23
2019-02-26T07:12:07.755Z,5.40
2019-02-26T07:14:36.027Z,7.23
2019-02-26T07:17:04.286Z,7.63
2019-02-26T07:19:33.294Z,6.90
2019-02-26T07:22:02.502Z,6.77
2019-02-26T07:24:30.798Z,6.60
2019-02-26T07:26:59.059Z,7.20
2019-02-26T07:29:30.804Z,6.80
2019-02-26T07:31:58.897Z,8.17
2019-02-26T07:34:27.463Z,7.23
2019-02-26T07:36:55.718Z,9.07
2019-02-26T07:39:24.012Z,8.70
2019-02-26T07:41:54.210Z,8.23
2019-02-26T07:44:24.152Z,7.63
2019-02-26T07:46:52.127Z,7.60
2019-02-26T07:49:20.418Z,7.43
2019-02-26T07:51:48.696Z,7.60
2019-02-26T07:54:16.946Z,8.17
2019-02-26T07:56:45.236Z,7.10
2019-02-26T07:59:15.040Z,7.60
2019-02-26T08:01:45.264Z,7.10
2019-02-26T08:04:13.518Z,7.50
2019-02-26T08:06:42.625Z,7.90
2019-02-26T08:09:13.561Z,7.30
2019-02-26T08:11:41.260Z,7.50
2019-02-26T08:14:10.738Z,7.87
2019-02-26T08:16:39.027Z,7.57
2019-02-26T08:19:07.218Z,8.10
2019-02-26T08:21:35.410Z,8.70
2019-02-26T08:24:03.801Z,8.40
2019-02-26T08:26:32.062Z,7.20
2019-02-26T08:29:02.514Z,7.50
2019-02-26T08:31:30.278Z,7.63
2019-02-26T08:33:58.571Z,7.47
2019-02-26T08:36:26.839Z,7.63
2019-02-26T08:38:57.135Z,8.00
2019-02-26T08:41:25.065Z,7.83
2019-02-26T08:43:54.575Z,8.57
2019-02-26T08:46:23.258Z,7.23
2019-02-26T08:48:51.458Z,7.77
2019-02-26T08:51:21.503Z,7.70
2019-02-26T08:53:51.733Z,7.40
2019-02-26T08:56:23.655Z,8.23
2019-02-26T08:58:49.482Z,8.07
2019-02-26T09:01:17.709Z,8.20
2019-02-26T09:03:48.047Z,9.00
2019-02-26T09:06:16.326Z,9.20
2019-02-26T09:08:44.746Z,9.67
2019-02-26T09:11:13.564Z,9.60
2019-02-26T09:13:43.847Z,10.03
2019-02-26T09:16:12.281Z,9.30
2019-02-26T09:18:40.676Z,9.33
2019-02-26T09:21:10.229Z,8.33
2019-02-26T09:23:38.869Z,9.67
2019-02-26T09:26:07.146Z,8.17
2019-02-26T09:28:35.357Z,8.90
2019-02-26T09:31:04.689Z,9.37
2019-02-26T09:33:35.511Z,7.90
2019-02-26T09:36:03.497Z,7.27
2019-02-26T09:38:31.757Z,8.33
2019-02-26T09:40:59.973Z,8.23
2019-02-26T09:43:28.172Z,9.87
2019-02-26T09:45:56.490Z,8.73
2019-02-26T09:48:24.757Z,10.13
2019-02-26T09:50:52.982Z,11.63
2019-02-26T09:53:21.243Z,8.83
2019-02-26T09:55:49.459Z,9.17
2019-02-26T09:58:18.596Z,9.50
2019-02-26T10:00:48.777Z,9.17
2019-02-26T10:03:17.591Z,8.77
2019-02-26T10:05:47.676Z,8.87
2019-02-26T10:08:17.275Z,8.30
2019-02-26T10:10:45.713Z,8.13
2019-02-26T10:13:15.491Z,9.97
2019-02-26T10:15:44.830Z,8.80
2019-02-26T10:18:13.152Z,8.80
2019-02-26T10:20:43.341Z,9.60
2019-02-26T10:23:11.555Z,9.50
2019-02-26T10:25:39.827Z,10.80
2019-02-26T10:28:09.660Z,9.73
2019-02-26T10:30:41.039Z,9.70
2019-02-26T10:33:07.978Z,8.57
2019-02-26T10:35:38.605Z,8.43
2019-02-26T10:38:08.375Z,9.90
2019-02-26T10:40:50.133Z,8.90
2019-02-26T10:43:06.102Z,9.53
2019-02-26T10:45:38.571Z,10.00
2019-02-26T10:48:04.510Z,9.70
2019-02-26T10:50:32.742Z,8.97
2019-02-26T10:53:07.357Z,9.00
2019-02-26T10:55:38.190Z,8.93
2019-02-26T10:58:06.365Z,9.17
2019-02-26T11:00:34.487Z,9.27
2019-02-26T11:03:00.994Z,9.30
2019-02-26T11:05:29.334Z,9.50
2019-02-26T11:07:59.769Z,9.00
2019-02-26T11:10:27.623Z,8.80
2019-02-26T11:12:58.641Z,8.87
2019-02-26T11:15:26.835Z,9.70
2019-02-26T11:17:56.007Z,9.20
2019-02-26T11:20:27.410Z,9.70
2019-02-26T11:22:54.330Z,8.23
2019-02-26T11:25:24.838Z,10.17
2019-02-26T11:27:52.574Z,8.90
2019-02-26T11:30:28.591Z,9.00
2019-02-26T11:32:58.664Z,9.33
2019-02-26T11:35:24.636Z,9.67
2019-02-26T11:37:55.420Z,9.43
2019-02-26T11:40:25.318Z,9.13
2019-02-26T11:42:54.179Z,8.50
2019-02-26T11:45:23.048Z,7.90
2019-02-26T11:47:51.306Z,9.20
2019-02-26T11:50:26.966Z,7.50
2019-02-26T11:52:54.806Z,8.47
2019-02-26T11:55:23.543Z,7.30
2019-02-26T11:57:52.678Z,8.30
2019-02-26T12:00:47.626Z,7.73
2019-02-26T12:03:15.234Z,7.67
2019-02-26T12:05:43.501Z,7.00
2019-02-26T12:08:14.294Z,6.70
2019-02-26T12:10:41.766Z,7.37
2019-02-26T12:13:10.067Z,7.60
2019-02-26T12:15:41.518Z,6.93
2019-02-26T12:18:10.180Z,6.90
2019-02-26T12:20:40.493Z,6.83
2019-02-26T12:23:10.646Z,7.20
2019-02-26T12:25:38.266Z,6.77
2019-02-26T12:28:08.259Z,6.20
2019-02-26T12:30:39.828Z,7.20
2019-02-26T12:33:07.682Z,7.00
2019-02-26T12:35:38.008Z,6.37
2019-02-26T12:38:17.416Z,7.60
2019-02-26T12:40:37.927Z,6.33
2019-02-26T12:43:08.418Z,6.63
2019-02-26T12:45:38.711Z,6.27
2019-02-26T12:48:09.840Z,6.67
2019-02-26T12:50:37.437Z,6.93
2019-02-26T12:53:08.757Z,6.40
2019-02-26T12:55:38.350Z,7.00
2019-02-26T12:58:06.174Z,6.83
2019-02-26T13:00:34.975Z,6.60
2019-02-26T13:03:05.659Z,6.50
2019-02-26T13:05:35.216Z,6.73
2019-02-26T13:08:06.079Z,6.37
2019-02-26T13:10:34.090Z,6.87
2019-02-26T13:13:06.590Z,6.70
2019-02-26T13:15:32.299Z,7.43
2019-02-26T13:18:00.567Z,7.63
2019-02-26T13:20:29.114Z,7.27
2019-02-26T13:23:16.353Z,7.70
2019-02-26T13:25:27.309Z,6.67
2019-02-26T13:27:55.648Z,8.07
2019-02-26T13:30:27.438Z,7.37
2019-02-26T13:33:00.045Z,7.50
2019-02-26T13:35:25.707Z,5.80
2019-02-26T13:37:55.114Z,7.27
2019-02-26T13:40:24.126Z,7.50
2019-02-26T13:45:23.196Z,7.00
2019-02-26T13:47:52.397Z,7.10
2019-02-26T13:50:22.154Z,6.43
2019-02-26T13:52:50.441Z,5.50
2019-02-26T13:55:18.635Z,7.13
2019-02-26T13:57:46.941Z,6.57
2019-02-26T14:00:23.552Z,7.50
2019-02-26T14:02:46.046Z,5.40
2019-02-26T14:05:14.808Z,5.47
2019-02-26T14:07:43.744Z,5.87
2019-02-26T14:10:16.736Z,6.80
2019-02-26T14:12:44.994Z,5.07
2019-02-26T14:15:20.578Z,5.97
2019-02-26T14:17:49.042Z,5.37
2019-02-26T14:20:17.336Z,5.17
2019-02-26T14:22:45.603Z,4.80
2019-02-26T14:25:14.173Z,5.23
2019-02-26T14:27:42.443Z,4.33
2019-02-26T14:30:12.248Z,5.13
2019-02-26T14:32:40.541Z,5.13
2019-02-26T14:35:10.075Z,5.60
2019-02-26T14:37:38.371Z,6.47
2019-02-26T14:40:08.201Z,6.10
2019-02-26T14:42:36.586Z,6.13
2019-02-26T14:45:06.424Z,6.20
2019-02-26T14:47:34.725Z,5.43
2019-02-26T14:50:03.656Z,6.67
2019-02-26T14:52:31.949Z,5.97
2019-02-26T14:55:00.222Z,5.57
2019-02-26T14:57:28.531Z,4.60
2019-02-26T14:59:56.794Z,4.27
2019-02-26T15:02:25.062Z,4.47
2019-02-26T15:04:53.362Z,4.10
2019-02-26T15:07:21.665Z,3.63
2019-02-26T15:09:49.958Z,3.63
2019-02-26T15:12:18.148Z,4.43
2019-02-26T15:14:48.718Z,4.50
2019-02-26T15:17:17.978Z,4.77
2019-02-26T15:19:50.169Z,7.07
2019-02-26T15:22:16.154Z,5.50
2019-02-26T15:24:44.481Z,7.03
2019-02-26T15:27:12.750Z,7.50
2019-02-26T15:29:41.634Z,6.50
2019-02-26T15:32:09.961Z,5.50
2019-02-26T15:34:38.221Z,5.27
2019-02-26T15:37:06.506Z,5.63
2019-02-26T15:39:34.769Z,5.10
2019-02-26T15:42:03.058Z,6.00
2019-02-26T15:44:31.330Z,5.60
2019-02-26T15:47:02.233Z,6.43
2019-02-26T15:49:29.573Z,5.93
2019-02-26T15:51:57.790Z,7.70
2019-02-26T15:54:27.316Z,9.17
2019-02-26T15:56:57.634Z,7.13
2019-02-26T15:59:25.971Z,8.17
2019-02-26T16:01:55.611Z,8.03
2019-02-26T16:04:25.219Z,8.30
2019-02-26T16:06:53.474Z,7.37
2019-02-26T16:09:21.772Z,7.80
2019-02-26T16:11:50.034Z,9.03
2019-02-26T16:14:18.253Z,9.40
2019-02-26T16:16:46.521Z,9.67
2019-02-26T16:19:14.843Z,10.10
2019-02-26T16:21:43.114Z,10.77
2019-02-26T16:24:11.378Z,12.57
2019-02-26T16:26:41.006Z,9.40
2019-02-26T16:29:09.513Z,8.80
2019-02-26T16:31:37.802Z,10.07
2019-02-26T16:34:06.064Z,10.30
2019-02-26T16:36:34.362Z,9.63
2019-02-26T16:39:02.999Z,9.70
2019-02-26T16:41:31.294Z,12.00
2019-02-26T16:44:00.390Z,11.27
2019-02-26T16:46:29.330Z,10.63
2019-02-26T16:48:58.376Z,11.00
2019-02-26T16:51:26.645Z,11.43
2019-02-26T16:53:55.321Z,9.70
2019-02-26T16:56:23.595Z,9.90
2019-02-26T16:58:52.085Z,11.83
2019-02-26T17:01:21.799Z,9.87
2019-02-26T17:03:50.370Z,10.20
2019-02-26T17:06:20.569Z,11.23
2019-02-26T17:08:48.567Z,10.67
2019-02-26T17:11:16.859Z,9.23
2019-02-26T17:13:45.205Z,9.97
2019-02-26T17:16:13.662Z,9.80
2019-02-26T17:18:42.889Z,11.07
2019-02-26T17:21:11.621Z,9.40
2019-02-26T17:23:39.948Z,11.07
2019-02-26T17:26:08.211Z,10.67
2019-02-26T17:28:36.550Z,11.27
2019-02-26T17:31:04.896Z,10.70
2019-02-26T17:33:33.186Z,9.90
2019-02-26T17:36:01.999Z,10.53
2019-02-26T17:38:30.857Z,11.30
2019-02-26T17:40:59.123Z,10.83
2019-02-26T17:43:27.413Z,9.90
2019-02-26T17:45:55.674Z,9.83
2019-02-26T17:48:23.971Z,11.10
2019-02-26T17:50:52.439Z,9.60
2019-02-26T17:53:20.717Z,10.53
2019-02-26T17:55:48.997Z,11.10
2019-02-26T17:58:17.186Z,12.80
2019-02-26T18:00:47.041Z,12.07
2019-02-26T18:03:15.235Z,11.23
2019-02-26T18:05:50.869Z,12.37
2019-02-26T18:08:18.501Z,11.90
2019-02-26T18:10:43.373Z,11.50
2019-02-26T18:13:11.704Z,12.60
2019-02-26T18:15:39.929Z,10.90
2019-02-26T18:18:08.149Z,11.40
2019-02-26T18:20:36.409Z,10.80
2019-02-26T18:23:04.626Z,9.60
2019-02-26T18:25:32.813Z,9.50
2019-02-26T18:28:01.035Z,9.80
2019-02-26T18:30:29.674Z,9.70
2019-02-26T18:32:58.930Z,9.97
2019-02-26T18:35:27.521Z,9.47
2019-02-26T18:37:55.710Z,9.33
2019-02-26T18:40:27.981Z,10.00
2019-02-26T18:42:53.983Z,9.70
2019-02-26T18:45:27.496Z,9.67
2019-02-26T18:47:53.282Z,9.37
2019-02-26T18:50:21.502Z,9.87
2019-02-26T18:52:49.767Z,10.20
2019-02-26T18:55:18.825Z,9.80
2019-02-26T18:57:47.022Z,10.33
2019-02-26T19:00:16.850Z,8.83
2019-02-26T19:02:45.120Z,10.23
2019-02-26T19:05:13.460Z,10.03
2019-02-26T19:07:41.669Z,9.43
2019-02-26T19:10:11.241Z,10.30
2019-02-26T19:12:39.533Z,9.77
2019-02-26T19:15:09.267Z,9.23
2019-02-26T19:17:37.558Z,10.60
2019-02-26T19:20:07.367Z,11.00
2019-02-26T19:22:35.581Z,10.10
2019-02-26T19:25:08.834Z,10.30
2019-02-26T19:27:34.982Z,10.93
2019-02-26T19:30:04.536Z,10.07
2019-02-26T19:32:33.486Z,9.63
2019-02-26T19:35:01.923Z,10.30
2019-02-26T19:37:30.241Z,10.33
2019-02-26T19:39:58.457Z,8.90
2019-02-26T19:42:26.642Z,9.67
2019-02-26T19:44:54.940Z,9.90
2019-02-26T19:47:23.392Z,10.20
2019-02-26T19:49:51.698Z,10.00
2019-02-26T19:52:19.959Z,9.47
2019-02-26T19:54:48.250Z,9.30
2019-02-26T19:57:16.445Z,10.03
2019-02-26T19:59:46.816Z,9.67
2019-02-26T20:02:14.645Z,9.30
2019-02-26T20:04:42.937Z,9.70
2019-02-26T20:07:11.202Z,10.30
2019-02-26T20:09:41.505Z,10.07
2019-02-26T20:12:10.077Z,9.23
2019-02-26T20:14:38.313Z,8.93
2019-02-26T20:17:14.384Z,10.60
2019-02-26T20:19:36.429Z,9.87
2019-02-26T20:22:04.646Z,10.17
2019-02-26T20:24:32.833Z,9.97
2019-02-26T20:27:01.050Z,9.10
2019-02-26T20:29:29.382Z,9.40
2019-02-26T20:31:57.726Z,9.07
2019-02-26T20:34:28.607Z,9.40
2019-02-26T20:36:57.043Z,9.60
2019-02-26T20:39:25.342Z,9.43
2019-02-26T20:41:55.770Z,10.77
2019-02-26T20:44:23.542Z,9.23
2019-02-26T20:46:51.806Z,11.10
2019-02-26T20:49:20.022Z,10.53
2019-02-26T20:51:48.225Z,11.43
2019-02-26T20:54:16.513Z,9.70
2019-02-26T20:56:44.905Z,10.43
2019-02-26T20:59:13.221Z,9.03
2019-02-26T21:01:42.960Z,9.90
2019-02-26T21:04:11.346Z,10.37
2019-02-26T21:06:39.566Z,9.40
2019-02-26T21:09:08.600Z,8.90
2019-02-26T21:11:36.890Z,9.00
2019-02-26T21:14:07.551Z,8.57
2019-02-26T21:16:35.018Z,9.73
2019-02-26T21:19:03.517Z,9.10
2019-02-26T21:21:31.803Z,9.20
2019-02-26T21:24:00.921Z,9.40
2019-02-26T21:26:29.674Z,9.67
2019-02-26T21:28:57.939Z,8.80
2019-02-26T21:31:26.135Z,8.53
2019-02-26T21:33:54.430Z,10.07
2019-02-26T21:36:22.754Z,10.33
2019-02-26T21:38:50.979Z,11.37
2019-02-26T21:41:21.071Z,9.40
2019-02-26T21:43:49.178Z,8.97
2019-02-26T21:46:17.362Z,9.90
2019-02-26T21:48:45.654Z,9.00
2019-02-26T21:51:13.850Z,8.33
2019-02-26T21:53:42.138Z,9.10
2019-02-26T21:56:10.338Z,10.17
2019-02-26T21:58:38.614Z,8.43
2019-02-26T22:01:06.898Z,9.73
2019-02-26T22:03:35.097Z,9.37
2019-02-26T22:06:05.575Z,9.37
2019-02-26T22:08:33.225Z,8.30
2019-02-26T22:11:01.519Z,8.63
2019-02-26T22:13:29.890Z,8.70
2019-02-26T22:15:58.204Z,8.30
2019-02-26T22:18:30.734Z,8.17
2019-02-26T22:20:56.442Z,8.80
2019-02-26T22:23:24.658Z,8.30
2019-02-26T22:25:54.061Z,7.90
2019-02-26T22:28:23.109Z,8.77
2019-02-26T22:30:55.694Z,7.77
2019-02-26T22:33:21.393Z,7.80
2019-02-26T22:35:49.657Z,8.43
2019-02-26T22:38:17.946Z,7.23
2019-02-26T22:40:46.209Z,8.60
2019-02-26T22:43:14.493Z,8.03
2019-02-26T22:45:42.678Z,8.73
2019-02-26T22:48:13.489Z,8.10
2019-02-26T22:50:40.822Z,8.20
2019-02-26T22:53:09.117Z,7.77
2019-02-26T22:55:37.378Z,7.93
2019-02-26T22:58:05.609Z,7.80
2019-02-26T23:00:49.621Z,8.07
2019-02-26T23:03:18.078Z,8.10
2019-02-26T23:05:46.549Z,8.80
2019-02-26T23:08:14.817Z,8.57
2019-02-26T23:10:43.101Z,7.50
2019-02-26T23:13:11.357Z,7.83
2019-02-26T23:15:39.646Z,8.37
2019-02-26T23:18:07.980Z,7.57
2019-02-26T23:20:36.552Z,9.10
2019-02-26T23:23:04.885Z,7.80
2019-02-26T23:25:35.677Z,8.23
2019-02-26T23:28:03.549Z,8.00
2019-02-26T23:30:31.814Z,8.33
2019-02-26T23:33:00.273Z,7.97
2019-02-26T23:35:28.593Z,8.63
2019-02-26T23:37:56.882Z,8.10
2019-02-26T23:40:27.497Z,7.83
2019-02-26T23:42:55.077Z,7.83
2019-02-26T23:45:24.239Z,8.70
2019-02-26T23:47:53.105Z,8.63
2019-02-26T23:50:21.369Z,8.87
2019-02-26T23:52:49.675Z,7.43
2019-02-26T23:55:17.863Z,8.73
2019-02-26T23:57:46.129Z,9.23
